Metar z pełnej godziny Komunikat METAR ze strony awiacja.imgw.pl Metar G00 EPKT METAR EPKT 261900Z 26009KT 9999 FEW030 BKN041 M01/M04 Q1010 =